createdAt,value
2022-10-02T00:02:22.045Z,90.10
2022-10-02T00:04:51.566Z,90.30
2022-10-02T00:07:19.132Z,90.40
2022-10-02T00:09:53.324Z,90.60
2022-10-02T00:12:21.673Z,90.50
2022-10-02T00:14:51.222Z,90.50
2022-10-02T00:17:20.383Z,90.70
2022-10-02T00:19:46.937Z,90.70
2022-10-02T00:22:21.722Z,90.80
2022-10-02T00:24:51.995Z,91.00
2022-10-02T00:27:30.781Z,91.10
2022-10-02T00:29:59.894Z,91.20
2022-10-02T00:32:26.377Z,91.40
2022-10-02T00:34:58.795Z,91.50
2022-10-02T00:37:38.305Z,91.70
2022-10-02T00:40:23.429Z,92.10
2022-10-02T00:43:17.774Z,92.30
2022-10-02T00:45:47.226Z,92.50
2022-10-02T00:48:43.201Z,92.50
2022-10-02T00:51:12.830Z,92.50
2022-10-02T00:53:49.498Z,92.50
2022-10-02T00:56:28.202Z,92.50
2022-10-02T00:58:57.808Z,92.50
2022-10-02T01:01:29.673Z,92.60
2022-10-02T01:03:56.938Z,92.60
2022-10-02T01:06:25.356Z,93.00
2022-10-02T01:08:52.113Z,93.10
2022-10-02T01:11:20.363Z,93.30
2022-10-02T01:13:47.391Z,93.50
2022-10-02T01:16:14.252Z,93.50
2022-10-02T01:18:41.761Z,93.60
2022-10-02T01:21:12.484Z,93.60
2022-10-02T01:23:43.356Z,93.70
2022-10-02T01:26:09.928Z,93.80
2022-10-02T01:28:36.706Z,93.60
2022-10-02T01:31:07.644Z,93.50
2022-10-02T01:33:34.458Z,93.50
2022-10-02T01:36:01.343Z,93.40
2022-10-02T01:38:28.316Z,93.40
2022-10-02T01:40:54.826Z,93.50
2022-10-02T01:43:21.325Z,93.60
2022-10-02T01:45:47.880Z,93.80
2022-10-02T01:48:19.424Z,93.90
2022-10-02T01:51:04.524Z,93.70
2022-10-02T01:53:50.401Z,93.70
2022-10-02T01:56:25.938Z,93.60
2022-10-02T01:58:59.256Z,93.70
2022-10-02T02:01:25.897Z,93.70
2022-10-02T02:04:13.837Z,93.70
2022-10-02T02:06:49.636Z,93.60
2022-10-02T02:09:36.398Z,93.70
2022-10-02T02:12:02.900Z,93.40
2022-10-02T02:14:34.736Z,93.50
2022-10-02T02:17:10.879Z,93.60
2022-10-02T02:19:42.802Z,93.50
2022-10-02T02:22:13.785Z,93.70
2022-10-02T02:24:43.316Z,93.70
2022-10-02T02:27:13.313Z,93.60
2022-10-02T02:29:42.204Z,93.70
2022-10-02T02:32:09.934Z,93.70
2022-10-02T02:34:40.172Z,93.60
2022-10-02T02:37:13.715Z,93.70
2022-10-02T02:39:40.326Z,93.70
2022-10-02T02:42:10.635Z,93.60
2022-10-02T02:44:40.243Z,93.60
2022-10-02T02:47:24.971Z,93.50
2022-10-02T02:49:51.457Z,93.50
2022-10-02T02:52:22.624Z,93.20
2022-10-02T02:54:53.870Z,93.20
2022-10-02T02:57:24.918Z,93.10
2022-10-02T02:59:52.857Z,93.30
2022-10-02T03:02:19.435Z,93.40
2022-10-02T03:04:46.007Z,93.30
2022-10-02T03:07:14.420Z,93.30
2022-10-02T03:09:42.458Z,93.20
2022-10-02T03:12:27.831Z,93.40
2022-10-02T03:14:57.340Z,93.20
2022-10-02T03:17:40.448Z,93.20
2022-10-02T03:20:07.216Z,92.80
2022-10-02T03:22:41.331Z,93.10
2022-10-02T03:25:18.074Z,93.20
2022-10-02T03:27:59.439Z,93.20
2022-10-02T03:30:26.039Z,93.20
2022-10-02T03:32:53.630Z,93.00
2022-10-02T03:35:21.300Z,93.00
2022-10-02T03:37:49.828Z,93.00
2022-10-02T03:40:16.394Z,93.10
2022-10-02T03:42:43.103Z,93.00
2022-10-02T03:45:09.831Z,92.70
2022-10-02T03:47:36.345Z,92.70
2022-10-02T03:50:02.876Z,92.70
2022-10-02T03:52:31.389Z,92.70
2022-10-02T03:55:01.361Z,92.70
2022-10-02T03:57:28.839Z,92.90
2022-10-02T04:00:12.648Z,93.10
2022-10-02T04:02:44.600Z,93.00
2022-10-02T04:05:31.403Z,93.10
2022-10-02T04:08:00.025Z,93.00
2022-10-02T04:10:41.439Z,92.90
2022-10-02T04:13:12.962Z,92.70
2022-10-02T04:15:48.822Z,92.70
2022-10-02T04:18:24.937Z,92.70
2022-10-02T04:21:06.002Z,92.70
2022-10-02T04:23:39.672Z,92.70
2022-10-02T04:26:18.002Z,92.70
2022-10-02T04:28:47.969Z,92.70
2022-10-02T04:31:14.741Z,92.60
2022-10-02T04:33:41.432Z,92.70
2022-10-02T04:36:12.786Z,92.60
2022-10-02T04:39:02.137Z,92.50
2022-10-02T04:41:44.022Z,92.40
2022-10-02T04:44:13.546Z,92.20
2022-10-02T04:46:52.317Z,92.10
2022-10-02T04:49:37.882Z,91.80
2022-10-02T04:52:23.646Z,91.60
2022-10-02T04:54:58.230Z,91.50
2022-10-02T04:57:46.827Z,91.60
2022-10-02T05:00:18.313Z,91.60
2022-10-02T05:02:47.886Z,91.50
2022-10-02T05:05:28.780Z,91.20
2022-10-02T05:07:55.317Z,91.30
2022-10-02T05:10:51.391Z,91.30
2022-10-02T05:13:26.988Z,91.20
2022-10-02T05:15:59.650Z,91.10
2022-10-02T05:18:43.746Z,91.20
2022-10-02T05:21:17.514Z,91.40
2022-10-02T05:23:50.077Z,91.60
2022-10-02T05:26:35.886Z,92.10
2022-10-02T05:29:21.393Z,91.50
2022-10-02T05:31:56.971Z,91.60
2022-10-02T05:34:35.380Z,91.70
2022-10-02T05:37:06.539Z,91.90
2022-10-02T05:39:40.852Z,91.80
2022-10-02T05:42:07.391Z,91.90
2022-10-02T05:44:45.450Z,92.10
2022-10-02T05:47:30.187Z,92.50
2022-10-02T05:50:02.098Z,92.70
2022-10-02T05:52:51.091Z,92.70
2022-10-02T05:55:23.746Z,92.20
2022-10-02T05:58:09.255Z,92.00
2022-10-02T06:00:50.973Z,91.90
2022-10-02T06:03:17.667Z,91.50
2022-10-02T06:05:47.478Z,91.50
2022-10-02T06:08:16.245Z,91.00
2022-10-02T06:10:51.495Z,90.70
2022-10-02T06:13:36.795Z,90.70
2022-10-02T06:16:09.540Z,91.00
2022-10-02T06:18:38.387Z,90.60
2022-10-02T06:21:14.732Z,90.70
2022-10-02T06:23:46.562Z,90.10
2022-10-02T06:26:23.843Z,90.00
2022-10-02T06:29:02.409Z,89.30
2022-10-02T06:31:41.779Z,89.60
2022-10-02T06:34:10.482Z,90.00
2022-10-02T06:36:55.805Z,88.70
2022-10-02T06:39:40.838Z,88.50
2022-10-02T06:42:07.440Z,88.50
2022-10-02T06:44:54.058Z,88.60
2022-10-02T06:47:39.390Z,88.50
2022-10-02T06:50:30.358Z,88.60
2022-10-02T06:53:05.614Z,88.50
2022-10-02T06:55:32.123Z,88.50
2022-10-02T06:58:14.588Z,88.60
2022-10-02T07:00:47.504Z,88.60
2022-10-02T07:03:22.861Z,88.60
2022-10-02T07:06:00.279Z,87.50
2022-10-02T07:08:39.662Z,87.60
2022-10-02T07:11:11.058Z,87.30
2022-10-02T07:13:41.994Z,87.00
2022-10-02T07:16:18.924Z,87.30
2022-10-02T07:19:10.815Z,86.00
2022-10-02T07:21:50.508Z,85.00
2022-10-02T07:24:23.861Z,84.10
2022-10-02T07:27:11.084Z,84.30
2022-10-02T07:29:41.132Z,84.40
2022-10-02T07:32:10.828Z,83.70
2022-10-02T07:34:43.248Z,84.00
2022-10-02T07:37:29.045Z,84.40
2022-10-02T07:39:58.557Z,85.00
2022-10-02T07:42:37.463Z,85.50
2022-10-02T07:45:27.724Z,84.30
2022-10-02T07:48:00.343Z,84.00
2022-10-02T07:50:38.787Z,83.10
2022-10-02T07:53:27.001Z,82.50
2022-10-02T07:55:54.736Z,87.00
2022-10-02T07:58:40.130Z,81.10
2022-10-02T08:01:13.580Z,80.70
2022-10-02T08:03:43.955Z,79.70
2022-10-02T08:06:11.110Z,80.40
2022-10-02T08:08:42.924Z,81.10
2022-10-02T08:11:12.689Z,82.30
2022-10-02T08:13:43.380Z,81.80
2022-10-02T08:16:10.831Z,81.10
2022-10-02T08:18:39.859Z,79.30
2022-10-02T08:21:18.721Z,78.80
2022-10-02T08:23:49.227Z,81.10
2022-10-02T08:26:26.729Z,81.10
2022-10-02T08:28:57.770Z,81.20
2022-10-02T08:31:25.028Z,81.30
2022-10-02T08:33:51.898Z,79.60
2022-10-02T08:36:33.668Z,79.60
2022-10-02T08:39:11.450Z,78.60
2022-10-02T08:41:37.989Z,78.90
2022-10-02T08:44:10.314Z,78.20
2022-10-02T08:46:58.122Z,80.00
2022-10-02T08:49:30.826Z,81.30
2022-10-02T08:52:06.643Z,81.40
2022-10-02T08:54:41.948Z,81.50
2022-10-02T08:57:27.374Z,81.40
2022-10-02T08:59:53.884Z,81.40
2022-10-02T09:02:34.858Z,81.40
2022-10-02T09:05:04.514Z,81.40
2022-10-02T09:07:53.567Z,81.40
2022-10-02T09:10:45.755Z,81.50
2022-10-02T09:13:12.321Z,81.40
2022-10-02T09:15:45.009Z,81.40
2022-10-02T09:18:16.698Z,81.40
2022-10-02T09:20:47.870Z,81.30
2022-10-02T09:23:41.587Z,81.40
2022-10-02T09:26:18.556Z,81.40
2022-10-02T09:28:48.141Z,81.50
2022-10-02T09:31:30.133Z,78.80
2022-10-02T09:34:20.454Z,78.90
2022-10-02T09:36:59.137Z,79.90
2022-10-02T09:39:51.513Z,80.00
2022-10-02T09:42:29.402Z,79.10
2022-10-02T09:45:01.394Z,79.60
2022-10-02T09:47:32.014Z,80.10
2022-10-02T09:50:17.490Z,81.60
2022-10-02T09:52:47.206Z,81.60
2022-10-02T09:55:13.693Z,81.60
2022-10-02T09:57:58.769Z,80.50
2022-10-02T10:00:51.885Z,79.10
2022-10-02T10:03:36.348Z,81.50
2022-10-02T10:06:17.456Z,79.90
2022-10-02T10:08:59.399Z,79.00
2022-10-02T10:11:30.342Z,79.70
2022-10-02T10:14:12.892Z,79.40
2022-10-02T10:16:39.388Z,79.70
2022-10-02T10:19:22.155Z,78.40
2022-10-02T10:21:54.884Z,77.80
2022-10-02T10:24:40.276Z,75.00
2022-10-02T10:27:09.846Z,76.20
2022-10-02T10:29:39.780Z,80.00
2022-10-02T10:32:18.815Z,80.50
2022-10-02T10:35:04.348Z,80.00
2022-10-02T10:38:23.794Z,80.10
2022-10-02T10:41:10.240Z,80.40
2022-10-02T10:43:47.618Z,81.80
2022-10-02T10:46:33.064Z,82.00
2022-10-02T10:49:20.361Z,81.70
2022-10-02T10:51:59.262Z,82.10
2022-10-02T10:54:25.830Z,83.80
2022-10-02T10:56:57.057Z,85.20
2022-10-02T10:59:42.242Z,87.70
2022-10-02T11:02:35.729Z,88.90
2022-10-02T11:05:05.262Z,86.70
2022-10-02T11:07:34.619Z,85.90
2022-10-02T11:10:10.050Z,86.70
2022-10-02T11:13:01.662Z,87.90
2022-10-02T11:15:28.188Z,86.50
2022-10-02T11:17:57.480Z,87.50
2022-10-02T11:20:30.312Z,87.10
2022-10-02T11:23:15.743Z,86.00
2022-10-02T11:25:53.051Z,87.30
2022-10-02T11:28:25.616Z,86.80
2022-10-02T11:30:53.691Z,87.70
2022-10-02T11:33:29.992Z,88.90
2022-10-02T11:36:05.499Z,89.70
2022-10-02T11:38:51.112Z,89.70
2022-10-02T11:41:39.050Z,89.70
2022-10-02T11:44:16.171Z,90.40
2022-10-02T11:47:01.926Z,89.80
2022-10-02T11:49:47.266Z,89.80
2022-10-02T11:52:22.885Z,89.70
2022-10-02T11:54:49.424Z,89.70
2022-10-02T11:57:35.012Z,89.70
2022-10-02T12:00:12.958Z,88.90
2022-10-02T12:02:39.555Z,88.50
2022-10-02T12:05:25.450Z,89.60
2022-10-02T12:08:10.868Z,89.60
2022-10-02T12:10:44.082Z,89.50
2022-10-02T12:13:39.139Z,90.00
2022-10-02T12:16:05.814Z,89.50
2022-10-02T12:18:44.173Z,90.10
2022-10-02T12:21:49.608Z,90.30
2022-10-02T12:24:46.210Z,90.20
2022-10-02T12:27:30.662Z,90.10
2022-10-02T12:30:08.158Z,89.60
2022-10-02T12:32:46.191Z,87.60
2022-10-02T12:35:21.684Z,89.60
2022-10-02T12:38:06.994Z,89.60
2022-10-02T12:40:43.633Z,89.60
2022-10-02T12:43:29.144Z,89.60
2022-10-02T12:46:17.235Z,86.70
2022-10-02T12:48:51.046Z,77.30
2022-10-02T12:51:20.640Z,78.00
2022-10-02T12:53:53.187Z,79.00
2022-10-02T12:56:38.581Z,80.80
2022-10-02T12:59:08.271Z,81.80
2022-10-02T13:01:37.853Z,81.80
2022-10-02T13:04:05.791Z,84.20
2022-10-02T13:06:55.607Z,85.90
2022-10-02T13:09:29.199Z,85.10
2022-10-02T13:12:11.908Z,85.10
2022-10-02T13:14:38.475Z,85.20
2022-10-02T13:17:17.180Z,85.20
2022-10-02T13:19:49.584Z,84.70
2022-10-02T13:22:19.319Z,85.00
2022-10-02T13:25:01.621Z,86.10
2022-10-02T13:27:34.461Z,86.00
2022-10-02T13:30:16.159Z,87.40
2022-10-02T13:33:00.953Z,87.60
2022-10-02T13:35:30.477Z,86.50
2022-10-02T13:38:06.550Z,86.70
2022-10-02T13:40:39.318Z,86.10
2022-10-02T13:43:21.207Z,86.30
2022-10-02T13:45:53.346Z,85.90
2022-10-02T13:48:32.202Z,86.90
2022-10-02T13:51:07.651Z,85.90
2022-10-02T13:53:43.318Z,84.90
2022-10-02T13:56:21.958Z,85.70
2022-10-02T13:59:00.790Z,82.30
2022-10-02T14:01:35.331Z,81.80
2022-10-02T14:04:20.848Z,81.80
2022-10-02T14:06:55.244Z,81.80
2022-10-02T14:09:21.755Z,81.80
2022-10-02T14:11:51.367Z,81.80
2022-10-02T14:14:27.108Z,82.10
2022-10-02T14:17:01.984Z,81.80
2022-10-02T14:19:48.238Z,83.90
2022-10-02T14:22:20.777Z,85.10
2022-10-02T14:25:07.553Z,83.30
2022-10-02T14:27:52.988Z,82.80
2022-10-02T14:30:24.976Z,83.30
2022-10-02T14:32:54.679Z,82.60
2022-10-02T14:35:27.144Z,82.60
2022-10-02T14:37:56.697Z,81.60
2022-10-02T14:40:28.382Z,83.00
2022-10-02T14:42:55.105Z,83.10
2022-10-02T14:45:36.523Z,83.90
2022-10-02T14:48:05.060Z,82.20
2022-10-02T14:50:43.696Z,83.30
2022-10-02T14:53:12.959Z,81.90
2022-10-02T14:55:39.436Z,81.70
2022-10-02T14:58:28.960Z,82.60
2022-10-02T15:01:18.400Z,83.20
2022-10-02T15:03:54.522Z,82.30
2022-10-02T15:06:39.839Z,82.80
2022-10-02T15:09:13.020Z,83.80
2022-10-02T15:11:42.377Z,84.60
2022-10-02T15:14:15.999Z,84.40
2022-10-02T15:17:16.614Z,85.00
2022-10-02T15:19:52.094Z,84.90
2022-10-02T15:22:24.642Z,85.40
2022-10-02T15:24:56.320Z,86.10
2022-10-02T15:27:23.342Z,86.30
2022-10-02T15:30:09.025Z,86.90
2022-10-02T15:32:38.505Z,87.70
2022-10-02T15:35:07.951Z,87.60
2022-10-02T15:37:37.441Z,88.00
2022-10-02T15:40:07.046Z,87.40
2022-10-02T15:42:49.757Z,89.80
2022-10-02T15:45:33.366Z,87.80
2022-10-02T15:48:20.013Z,87.80
2022-10-02T15:50:46.547Z,88.40
2022-10-02T15:53:36.670Z,89.10
2022-10-02T15:56:28.403Z,89.10
2022-10-02T15:59:05.688Z,89.70
2022-10-02T16:01:44.296Z,89.20
2022-10-02T16:04:17.278Z,89.30
2022-10-02T16:07:02.134Z,89.80
2022-10-02T16:09:37.868Z,90.00
2022-10-02T16:12:22.105Z,89.70
2022-10-02T16:14:59.724Z,90.10
2022-10-02T16:17:42.557Z,90.30
2022-10-02T16:20:15.116Z,90.60
2022-10-02T16:22:51.839Z,90.90
2022-10-02T16:25:18.325Z,91.60
2022-10-02T16:28:03.950Z,91.50
2022-10-02T16:30:33.317Z,91.70
2022-10-02T16:33:18.396Z,91.60
2022-10-02T16:36:03.828Z,91.70
2022-10-02T16:38:42.665Z,92.40
2022-10-02T16:41:24.544Z,92.50
2022-10-02T16:43:54.273Z,92.30
2022-10-02T16:46:36.401Z,92.30
2022-10-02T16:49:09.132Z,92.60
2022-10-02T16:51:54.713Z,92.90
2022-10-02T16:54:27.232Z,92.90
2022-10-02T16:56:56.874Z,92.90
2022-10-02T16:59:23.364Z,92.90
2022-10-02T17:02:13.082Z,92.90
2022-10-02T17:04:44.895Z,92.90
2022-10-02T17:07:47.027Z,92.90
2022-10-02T17:10:22.348Z,92.90
2022-10-02T17:13:07.711Z,92.90
2022-10-02T17:15:40.122Z,92.80
2022-10-02T17:18:28.657Z,92.80
2022-10-02T17:20:59.360Z,92.80
2022-10-02T17:23:29.009Z,93.20
2022-10-02T17:25:59.669Z,92.90
2022-10-02T17:28:46.401Z,93.10
2022-10-02T17:31:12.941Z,93.10
2022-10-02T17:33:59.725Z,93.40
2022-10-02T17:36:29.502Z,93.70
2022-10-02T17:39:04.184Z,93.70
2022-10-02T17:41:46.730Z,93.50
2022-10-02T17:44:36.660Z,93.70
2022-10-02T17:47:09.885Z,93.60
2022-10-02T17:49:51.757Z,93.70
2022-10-02T17:52:58.971Z,93.80
2022-10-02T17:55:47.109Z,93.80
2022-10-02T17:58:16.651Z,93.80
2022-10-02T18:01:12.599Z,93.60
2022-10-02T18:03:51.124Z,94.00
2022-10-02T18:06:34.072Z,94.20
2022-10-02T18:09:08.824Z,94.30
2022-10-02T18:11:38.567Z,94.40
2022-10-02T18:14:23.322Z,94.30
2022-10-02T18:17:07.413Z,94.10
2022-10-02T18:19:45.750Z,96.20
2022-10-02T18:22:30.881Z,97.80
2022-10-02T18:25:12.271Z,76.60
2022-10-02T18:27:50.519Z,57.30
2022-10-02T18:30:24.274Z,50.70
2022-10-02T18:32:53.701Z,44.70
2022-10-02T18:35:23.299Z,39.20
2022-10-02T18:37:57.404Z,39.90
2022-10-02T18:40:44.177Z,37.70
2022-10-02T18:43:18.408Z,36.20
2022-10-02T18:46:11.576Z,34.90
2022-10-02T18:48:57.120Z,38.20
2022-10-02T18:51:42.330Z,36.60
2022-10-02T18:54:11.820Z,33.90
2022-10-02T18:56:46.442Z,32.30
2022-10-02T18:59:30.034Z,32.40
2022-10-02T19:02:02.091Z,31.90
2022-10-02T19:04:34.344Z,31.90
2022-10-02T19:07:06.001Z,33.00
2022-10-02T19:09:32.638Z,29.60
2022-10-02T19:12:02.756Z,30.10
2022-10-02T19:14:37.056Z,30.60
2022-10-02T19:17:05.467Z,31.80
2022-10-02T19:19:33.246Z,39.70
2022-10-02T19:22:02.621Z,52.20
2022-10-02T19:24:34.846Z,60.70
2022-10-02T19:27:04.698Z,67.20
2022-10-02T19:29:31.276Z,72.40
2022-10-02T19:32:00.249Z,74.70
2022-10-02T19:34:31.165Z,77.50
2022-10-02T19:37:00.656Z,80.50
2022-10-02T19:39:30.473Z,81.30
2022-10-02T19:42:03.065Z,82.40
2022-10-02T19:44:32.474Z,83.80
2022-10-02T19:47:00.100Z,84.90
2022-10-02T19:49:30.846Z,86.10
2022-10-02T19:51:57.743Z,87.00
2022-10-02T19:54:30.679Z,87.90
2022-10-02T19:57:01.615Z,87.90
2022-10-02T19:59:41.906Z,87.80
2022-10-02T20:02:14.810Z,87.80
2022-10-02T20:04:41.451Z,87.80
2022-10-02T20:07:13.203Z,87.70
2022-10-02T20:09:43.421Z,88.40
2022-10-02T20:12:21.530Z,90.60
2022-10-02T20:14:52.609Z,90.70
2022-10-02T20:17:19.749Z,90.70
2022-10-02T20:19:51.761Z,90.60
2022-10-02T20:22:23.969Z,90.60
2022-10-02T20:25:09.932Z,90.90
2022-10-02T20:27:45.650Z,91.10
2022-10-02T20:30:17.184Z,91.20
2022-10-02T20:32:43.698Z,91.40
2022-10-02T20:35:16.087Z,91.40
2022-10-02T20:37:43.267Z,91.20
2022-10-02T20:40:15.514Z,90.90
2022-10-02T20:42:55.008Z,90.90
2022-10-02T20:45:24.031Z,90.80
2022-10-02T20:47:56.759Z,91.00
2022-10-02T20:50:36.587Z,91.20
2022-10-02T20:53:11.977Z,91.20
2022-10-02T20:55:46.963Z,91.40
2022-10-02T20:58:36.937Z,91.10
2022-10-02T21:01:11.022Z,91.50
2022-10-02T21:03:56.152Z,92.10
2022-10-02T21:06:27.382Z,92.10
2022-10-02T21:09:12.310Z,92.10
2022-10-02T21:11:38.806Z,91.90
2022-10-02T21:14:09.265Z,91.70
2022-10-02T21:16:43.431Z,91.70
2022-10-02T21:19:26.637Z,91.40
2022-10-02T21:22:01.506Z,91.40
2022-10-02T21:24:28.007Z,91.00
2022-10-02T21:27:03.940Z,91.10
2022-10-02T21:29:53.072Z,91.30
2022-10-02T21:32:38.169Z,91.30
2022-10-02T21:35:04.664Z,91.60
2022-10-02T21:37:50.172Z,91.90
2022-10-02T21:40:16.668Z,91.90
2022-10-02T21:42:59.771Z,91.90
2022-10-02T21:45:38.505Z,91.90
2022-10-02T21:48:08.079Z,91.80
2022-10-02T21:50:44.798Z,91.90
2022-10-02T21:53:29.977Z,92.50
2022-10-02T21:55:56.479Z,92.70
2022-10-02T21:58:41.860Z,92.80
2022-10-02T22:01:23.007Z,92.90
2022-10-02T22:04:08.364Z,93.00
2022-10-02T22:06:44.016Z,92.80
2022-10-02T22:09:19.634Z,93.00
2022-10-02T22:11:52.117Z,93.00
2022-10-02T22:14:27.874Z,93.00
2022-10-02T22:16:57.755Z,93.20
2022-10-02T22:19:27.141Z,93.00
2022-10-02T22:21:59.824Z,93.10
2022-10-02T22:24:35.558Z,93.40
2022-10-02T22:27:26.416Z,93.80
2022-10-02T22:29:54.437Z,93.70
2022-10-02T22:32:42.578Z,93.50
2022-10-02T22:35:23.426Z,93.50
2022-10-02T22:38:04.189Z,93.60
2022-10-02T22:40:40.970Z,93.50
2022-10-02T22:43:08.908Z,93.60
2022-10-02T22:45:38.585Z,93.50
2022-10-02T22:48:28.565Z,93.40
2022-10-02T22:50:58.078Z,93.60
2022-10-02T22:53:35.918Z,93.40
2022-10-02T22:56:02.461Z,93.40
2022-10-02T22:58:44.711Z,93.70
2022-10-02T23:01:21.509Z,94.10
2022-10-02T23:03:51.782Z,94.00
2022-10-02T23:06:30.591Z,94.00
2022-10-02T23:09:12.308Z,94.20
2022-10-02T23:11:44.229Z,94.20
2022-10-02T23:14:17.945Z,94.10
2022-10-02T23:16:49.237Z,94.40
2022-10-02T23:19:21.701Z,94.30
2022-10-02T23:21:54.051Z,94.40
2022-10-02T23:24:23.938Z,94.50
2022-10-02T23:26:50.515Z,94.60
2022-10-02T23:29:35.880Z,94.80
2022-10-02T23:32:21.674Z,95.10
2022-10-02T23:34:57.325Z,95.10
2022-10-02T23:37:26.055Z,95.30
2022-10-02T23:39:56.073Z,95.50
2022-10-02T23:42:40.754Z,95.40
2022-10-02T23:45:29.582Z,95.60
2022-10-02T23:48:00.062Z,95.90
2022-10-02T23:50:29.654Z,95.80
2022-10-02T23:53:16.439Z,95.90
2022-10-02T23:55:57.169Z,95.90
2022-10-02T23:58:26.551Z,96.00
